sensor_id;sensor_type;location;lat;lon;timestamp;P1;durP1;ratioP1;P2;durP2;ratioP2
23444;SDS011;11895;48.738;9.320;2022-11-20T00:01:51;11.98;;;7.57;;
23444;SDS011;11895;48.738;9.320;2022-11-20T00:04:19;13.05;;;7.30;;
23444;SDS011;11895;48.738;9.320;2022-11-20T00:06:46;11.70;;;7.55;;
23444;SDS011;11895;48.738;9.320;2022-11-20T00:09:14;9.98;;;6.75;;
23444;SDS011;11895;48.738;9.320;2022-11-20T00:11:42;13.32;;;7.68;;
23444;SDS011;11895;48.738;9.320;2022-11-20T00:14:10;11.73;;;6.63;;
23444;SDS011;11895;48.738;9.320;2022-11-20T00:16:38;10.73;;;6.78;;
23444;SDS011;11895;48.738;9.320;2022-11-20T00:19:06;9.02;;;6.55;;
23444;SDS011;11895;48.738;9.320;2022-11-20T00:21:34;13.50;;;6.88;;
23444;SDS011;11895;48.738;9.320;2022-11-20T00:24:02;10.05;;;6.97;;
23444;SDS011;11895;48.738;9.320;2022-11-20T00:26:29;11.40;;;7.25;;
23444;SDS011;11895;48.738;9.320;2022-11-20T00:28:58;13.32;;;6.97;;
23444;SDS011;11895;48.738;9.320;2022-11-20T00:31:28;11.70;;;6.07;;
23444;SDS011;11895;48.738;9.320;2022-11-20T00:36:25;9.38;;;5.88;;
23444;SDS011;11895;48.738;9.320;2022-11-20T00:38:58;10.00;;;5.72;;
23444;SDS011;11895;48.738;9.320;2022-11-20T00:41:27;9.10;;;6.20;;
23444;SDS011;11895;48.738;9.320;2022-11-20T00:43:56;9.70;;;5.82;;
23444;SDS011;11895;48.738;9.320;2022-11-20T00:46:25;7.53;;;5.90;;
23444;SDS011;11895;48.738;9.320;2022-11-20T00:48:54;13.27;;;8.20;;
23444;SDS011;11895;48.738;9.320;2022-11-20T00:51:23;8.77;;;5.75;;
23444;SDS011;11895;48.738;9.320;2022-11-20T00:53:54;10.13;;;4.97;;
23444;SDS011;11895;48.738;9.320;2022-11-20T00:56:24;10.23;;;5.50;;
23444;SDS011;11895;48.738;9.320;2022-11-20T01:01:21;13.63;;;8.00;;
23444;SDS011;11895;48.738;9.320;2022-11-20T01:03:52;8.25;;;5.10;;
23444;SDS011;11895;48.738;9.320;2022-11-20T01:09:07;10.25;;;5.97;;
23444;SDS011;11895;48.738;9.320;2022-11-20T01:11:41;6.03;;;4.63;;
23444;SDS011;11895;48.738;9.320;2022-11-20T01:14:12;7.65;;;4.15;;
23444;SDS011;11895;48.738;9.320;2022-11-20T01:16:48;6.72;;;4.40;;
23444;SDS011;11895;48.738;9.320;2022-11-20T01:19:21;5.32;;;3.75;;
23444;SDS011;11895;48.738;9.320;2022-11-20T01:21:52;4.57;;;3.20;;
23444;SDS011;11895;48.738;9.320;2022-11-20T01:24:21;5.93;;;3.70;;
23444;SDS011;11895;48.738;9.320;2022-11-20T01:26:50;6.57;;;3.75;;
23444;SDS011;11895;48.738;9.320;2022-11-20T01:29:20;7.95;;;4.38;;
23444;SDS011;11895;48.738;9.320;2022-11-20T01:31:50;3.90;;;2.92;;
23444;SDS011;11895;48.738;9.320;2022-11-20T01:34:19;5.97;;;3.30;;
23444;SDS011;11895;48.738;9.320;2022-11-20T01:36:48;6.45;;;3.97;;
23444;SDS011;11895;48.738;9.320;2022-11-20T01:39:18;7.25;;;3.55;;
23444;SDS011;11895;48.738;9.320;2022-11-20T01:41:49;5.63;;;3.17;;
23444;SDS011;11895;48.738;9.320;2022-11-20T01:50:10;7.05;;;3.20;;
23444;SDS011;11895;48.738;9.320;2022-11-20T01:52:45;3.30;;;2.50;;
23444;SDS011;11895;48.738;9.320;2022-11-20T01:58:26;3.58;;;2.40;;
23444;SDS011;11895;48.738;9.320;2022-11-20T02:01:02;7.25;;;3.10;;
23444;SDS011;11895;48.738;9.320;2022-11-20T02:03:31;5.75;;;2.92;;
23444;SDS011;11895;48.738;9.320;2022-11-20T02:08:32;4.35;;;2.90;;
23444;SDS011;11895;48.738;9.320;2022-11-20T02:11:00;7.10;;;3.88;;
23444;SDS011;11895;48.738;9.320;2022-11-20T02:13:28;3.35;;;2.90;;
23444;SDS011;11895;48.738;9.320;2022-11-20T02:18:57;4.93;;;2.90;;
23444;SDS011;11895;48.738;9.320;2022-11-20T02:21:51;3.08;;;2.50;;
23444;SDS011;11895;48.738;9.320;2022-11-20T02:24:31;5.90;;;3.05;;
23444;SDS011;11895;48.738;9.320;2022-11-20T02:26:59;5.35;;;3.05;;
23444;SDS011;11895;48.738;9.320;2022-11-20T02:29:42;5.68;;;2.70;;
23444;SDS011;11895;48.738;9.320;2022-11-20T02:32:23;5.72;;;2.88;;
23444;SDS011;11895;48.738;9.320;2022-11-20T02:34:57;3.38;;;2.60;;
23444;SDS011;11895;48.738;9.320;2022-11-20T02:37:32;6.68;;;2.97;;
23444;SDS011;11895;48.738;9.320;2022-11-20T02:40:03;3.35;;;2.53;;
23444;SDS011;11895;48.738;9.320;2022-11-20T02:42:32;3.85;;;2.90;;
23444;SDS011;11895;48.738;9.320;2022-11-20T02:45:00;3.35;;;2.88;;
23444;SDS011;11895;48.738;9.320;2022-11-20T02:47:27;5.63;;;2.75;;
23444;SDS011;11895;48.738;9.320;2022-11-20T02:49:55;3.67;;;2.55;;
23444;SDS011;11895;48.738;9.320;2022-11-20T02:52:22;4.10;;;2.28;;
23444;SDS011;11895;48.738;9.320;2022-11-20T02:54:50;6.68;;;2.80;;
23444;SDS011;11895;48.738;9.320;2022-11-20T02:57:19;4.70;;;3.03;;
23444;SDS011;11895;48.738;9.320;2022-11-20T02:59:46;3.97;;;3.13;;
23444;SDS011;11895;48.738;9.320;2022-11-20T03:02:14;6.43;;;2.90;;
23444;SDS011;11895;48.738;9.320;2022-11-20T03:04:41;3.60;;;2.60;;
23444;SDS011;11895;48.738;9.320;2022-11-20T03:07:09;6.13;;;3.08;;
23444;SDS011;11895;48.738;9.320;2022-11-20T03:09:37;4.25;;;3.03;;
23444;SDS011;11895;48.738;9.320;2022-11-20T03:12:06;4.95;;;3.60;;
23444;SDS011;11895;48.738;9.320;2022-11-20T03:14:34;5.30;;;3.55;;
23444;SDS011;11895;48.738;9.320;2022-11-20T03:17:01;5.18;;;3.30;;
23444;SDS011;11895;48.738;9.320;2022-11-20T03:19:29;5.25;;;3.40;;
23444;SDS011;11895;48.738;9.320;2022-11-20T03:21:57;6.28;;;3.75;;
23444;SDS011;11895;48.738;9.320;2022-11-20T03:24:26;5.75;;;4.10;;
23444;SDS011;11895;48.738;9.320;2022-11-20T03:26:54;5.45;;;3.50;;
23444;SDS011;11895;48.738;9.320;2022-11-20T03:29:22;6.88;;;4.00;;
23444;SDS011;11895;48.738;9.320;2022-11-20T03:31:49;4.93;;;3.50;;
23444;SDS011;11895;48.738;9.320;2022-11-20T03:34:17;7.55;;;3.83;;
23444;SDS011;11895;48.738;9.320;2022-11-20T03:36:44;5.72;;;3.38;;
23444;SDS011;11895;48.738;9.320;2022-11-20T03:39:12;6.43;;;3.20;;
23444;SDS011;11895;48.738;9.320;2022-11-20T03:41:40;4.78;;;3.17;;
23444;SDS011;11895;48.738;9.320;2022-11-20T03:44:10;5.45;;;3.03;;
23444;SDS011;11895;48.738;9.320;2022-11-20T03:46:38;6.70;;;3.88;;
23444;SDS011;11895;48.738;9.320;2022-11-20T03:49:06;5.20;;;3.40;;
23444;SDS011;11895;48.738;9.320;2022-11-20T03:51:35;4.93;;;3.42;;
23444;SDS011;11895;48.738;9.320;2022-11-20T03:54:04;5.28;;;3.22;;
23444;SDS011;11895;48.738;9.320;2022-11-20T03:56:34;6.20;;;3.22;;
23444;SDS011;11895;48.738;9.320;2022-11-20T03:59:05;7.10;;;3.28;;
23444;SDS011;11895;48.738;9.320;2022-11-20T04:01:33;4.00;;;3.05;;
23444;SDS011;11895;48.738;9.320;2022-11-20T04:04:03;7.15;;;2.83;;
23444;SDS011;11895;48.738;9.320;2022-11-20T04:06:36;7.45;;;3.03;;
23444;SDS011;11895;48.738;9.320;2022-11-20T04:09:05;5.10;;;2.88;;
23444;SDS011;11895;48.738;9.320;2022-11-20T04:14:04;5.30;;;3.08;;
23444;SDS011;11895;48.738;9.320;2022-11-20T04:16:39;6.47;;;3.03;;
23444;SDS011;11895;48.738;9.320;2022-11-20T04:19:12;6.13;;;3.17;;
23444;SDS011;11895;48.738;9.320;2022-11-20T04:21:43;6.18;;;3.83;;
23444;SDS011;11895;48.738;9.320;2022-11-20T04:24:11;6.18;;;3.00;;
23444;SDS011;11895;48.738;9.320;2022-11-20T04:26:39;4.68;;;3.13;;
23444;SDS011;11895;48.738;9.320;2022-11-20T04:29:09;6.20;;;3.15;;
23444;SDS011;11895;48.738;9.320;2022-11-20T04:31:38;8.93;;;3.25;;
23444;SDS011;11895;48.738;9.320;2022-11-20T04:34:06;5.35;;;2.72;;
23444;SDS011;11895;48.738;9.320;2022-11-20T04:36:34;5.45;;;3.30;;
23444;SDS011;11895;48.738;9.320;2022-11-20T04:39:03;4.40;;;2.75;;
23444;SDS011;11895;48.738;9.320;2022-11-20T04:41:33;6.45;;;3.20;;
23444;SDS011;11895;48.738;9.320;2022-11-20T04:44:04;4.10;;;2.80;;
23444;SDS011;11895;48.738;9.320;2022-11-20T04:46:33;3.50;;;2.88;;
23444;SDS011;11895;48.738;9.320;2022-11-20T04:49:04;3.38;;;2.40;;
23444;SDS011;11895;48.738;9.320;2022-11-20T04:51:33;5.00;;;3.00;;
23444;SDS011;11895;48.738;9.320;2022-11-20T04:54:01;3.97;;;2.75;;
23444;SDS011;11895;48.738;9.320;2022-11-20T04:56:29;4.00;;;2.58;;
23444;SDS011;11895;48.738;9.320;2022-11-20T04:59:01;7.03;;;3.28;;
23444;SDS011;11895;48.738;9.320;2022-11-20T05:01:29;4.65;;;2.80;;
23444;SDS011;11895;48.738;9.320;2022-11-20T05:03:59;6.03;;;3.15;;
23444;SDS011;11895;48.738;9.320;2022-11-20T05:06:26;7.00;;;2.60;;
23444;SDS011;11895;48.738;9.320;2022-11-20T05:08:57;5.05;;;3.05;;
23444;SDS011;11895;48.738;9.320;2022-11-20T05:11:26;3.80;;;2.28;;
23444;SDS011;11895;48.738;9.320;2022-11-20T05:13:55;7.03;;;3.25;;
23444;SDS011;11895;48.738;9.320;2022-11-20T05:16:26;7.68;;;2.63;;
23444;SDS011;11895;48.738;9.320;2022-11-20T05:18:56;4.25;;;2.50;;
23444;SDS011;11895;48.738;9.320;2022-11-20T05:21:25;4.80;;;2.75;;
23444;SDS011;11895;48.738;9.320;2022-11-20T05:23:52;4.50;;;2.90;;
23444;SDS011;11895;48.738;9.320;2022-11-20T05:26:20;5.78;;;3.05;;
23444;SDS011;11895;48.738;9.320;2022-11-20T05:28:49;5.18;;;2.70;;
23444;SDS011;11895;48.738;9.320;2022-11-20T05:31:19;5.32;;;2.67;;
23444;SDS011;11895;48.738;9.320;2022-11-20T05:33:54;6.45;;;3.97;;
23444;SDS011;11895;48.738;9.320;2022-11-20T05:38:50;4.45;;;2.80;;
23444;SDS011;11895;48.738;9.320;2022-11-20T05:41:26;5.43;;;2.85;;
23444;SDS011;11895;48.738;9.320;2022-11-20T05:43:55;5.63;;;2.75;;
23444;SDS011;11895;48.738;9.320;2022-11-20T05:46:24;5.57;;;2.67;;
23444;SDS011;11895;48.738;9.320;2022-11-20T05:48:54;4.15;;;2.63;;
23444;SDS011;11895;48.738;9.320;2022-11-20T05:53:52;3.78;;;2.38;;
23444;SDS011;11895;48.738;9.320;2022-11-20T05:56:22;4.72;;;2.03;;
23444;SDS011;11895;48.738;9.320;2022-11-20T05:58:50;2.72;;;2.03;;
23444;SDS011;11895;48.738;9.320;2022-11-20T06:01:19;4.72;;;2.50;;
23444;SDS011;11895;48.738;9.320;2022-11-20T06:03:52;3.70;;;2.42;;
23444;SDS011;11895;48.738;9.320;2022-11-20T06:08:48;3.80;;;2.35;;
23444;SDS011;11895;48.738;9.320;2022-11-20T06:11:40;3.55;;;2.28;;
23444;SDS011;11895;48.738;9.320;2022-11-20T06:14:08;3.15;;;2.30;;
23444;SDS011;11895;48.738;9.320;2022-11-20T06:16:35;6.63;;;2.55;;
23444;SDS011;11895;48.738;9.320;2022-11-20T06:19:03;5.45;;;2.33;;
23444;SDS011;11895;48.738;9.320;2022-11-20T06:21:31;2.30;;;1.70;;
23444;SDS011;11895;48.738;9.320;2022-11-20T06:23:58;5.50;;;2.30;;
23444;SDS011;11895;48.738;9.320;2022-11-20T06:26:26;4.43;;;2.33;;
23444;SDS011;11895;48.738;9.320;2022-11-20T06:28:54;3.70;;;2.35;;
23444;SDS011;11895;48.738;9.320;2022-11-20T06:31:25;4.50;;;2.10;;
23444;SDS011;11895;48.738;9.320;2022-11-20T06:33:53;3.55;;;2.20;;
23444;SDS011;11895;48.738;9.320;2022-11-20T06:36:21;3.45;;;2.33;;
23444;SDS011;11895;48.738;9.320;2022-11-20T06:38:50;3.47;;;2.10;;
23444;SDS011;11895;48.738;9.320;2022-11-20T06:41:19;4.65;;;2.35;;
23444;SDS011;11895;48.738;9.320;2022-11-20T06:43:48;4.20;;;2.40;;
23444;SDS011;11895;48.738;9.320;2022-11-20T06:46:17;5.35;;;2.15;;
23444;SDS011;11895;48.738;9.320;2022-11-20T06:48:46;3.42;;;2.13;;
23444;SDS011;11895;48.738;9.320;2022-11-20T06:51:14;3.65;;;2.15;;
23444;SDS011;11895;48.738;9.320;2022-11-20T06:53:48;3.23;;;1.90;;
23444;SDS011;11895;48.738;9.320;2022-11-20T06:56:16;3.55;;;2.40;;
23444;SDS011;11895;48.738;9.320;2022-11-20T06:58:44;3.58;;;2.28;;
23444;SDS011;11895;48.738;9.320;2022-11-20T07:01:12;4.28;;;2.00;;
23444;SDS011;11895;48.738;9.320;2022-11-20T07:03:44;3.38;;;2.33;;
23444;SDS011;11895;48.738;9.320;2022-11-20T07:06:19;5.15;;;2.33;;
23444;SDS011;11895;48.738;9.320;2022-11-20T07:08:47;3.08;;;2.10;;
23444;SDS011;11895;48.738;9.320;2022-11-20T07:11:42;3.95;;;2.50;;
23444;SDS011;11895;48.738;9.320;2022-11-20T07:14:10;4.80;;;2.92;;
23444;SDS011;11895;48.738;9.320;2022-11-20T07:16:37;6.20;;;2.10;;
23444;SDS011;11895;48.738;9.320;2022-11-20T07:19:06;5.03;;;2.35;;
23444;SDS011;11895;48.738;9.320;2022-11-20T07:21:34;7.05;;;3.42;;
23444;SDS011;11895;48.738;9.320;2022-11-20T07:24:02;7.80;;;2.80;;
23444;SDS011;11895;48.738;9.320;2022-11-20T07:26:30;6.65;;;2.90;;
23444;SDS011;11895;48.738;9.320;2022-11-20T07:28:57;3.53;;;2.50;;
23444;SDS011;11895;48.738;9.320;2022-11-20T07:31:25;4.50;;;2.20;;
23444;SDS011;11895;48.738;9.320;2022-11-20T07:33:53;4.97;;;2.70;;
23444;SDS011;11895;48.738;9.320;2022-11-20T07:36:20;3.60;;;2.47;;
23444;SDS011;11895;48.738;9.320;2022-11-20T07:38:48;4.28;;;2.60;;
23444;SDS011;11895;48.738;9.320;2022-11-20T07:41:16;4.97;;;2.88;;
23444;SDS011;11895;48.738;9.320;2022-11-20T07:43:43;4.78;;;2.45;;
23444;SDS011;11895;48.738;9.320;2022-11-20T07:46:11;4.43;;;2.47;;
23444;SDS011;11895;48.738;9.320;2022-11-20T07:48:39;4.95;;;3.30;;
23444;SDS011;11895;48.738;9.320;2022-11-20T07:51:06;6.28;;;3.63;;
23444;SDS011;11895;48.738;9.320;2022-11-20T07:53:34;3.72;;;2.28;;
23444;SDS011;11895;48.738;9.320;2022-11-20T07:56:02;4.40;;;2.17;;
23444;SDS011;11895;48.738;9.320;2022-11-20T07:58:30;5.40;;;2.60;;
23444;SDS011;11895;48.738;9.320;2022-11-20T08:01:04;4.80;;;2.40;;
23444;SDS011;11895;48.738;9.320;2022-11-20T08:03:33;3.80;;;2.30;;
23444;SDS011;11895;48.738;9.320;2022-11-20T08:06:04;3.40;;;2.17;;
23444;SDS011;11895;48.738;9.320;2022-11-20T08:08:32;3.47;;;2.03;;
23444;SDS011;11895;48.738;9.320;2022-11-20T08:11:06;3.83;;;2.22;;
23444;SDS011;11895;48.738;9.320;2022-11-20T08:13:53;3.38;;;2.08;;
23444;SDS011;11895;48.738;9.320;2022-11-20T08:19:10;3.33;;;2.17;;
23444;SDS011;11895;48.738;9.320;2022-11-20T08:21:39;5.30;;;3.20;;
23444;SDS011;11895;48.738;9.320;2022-11-20T08:24:07;4.57;;;2.42;;
23444;SDS011;11895;48.738;9.320;2022-11-20T08:26:36;4.18;;;2.33;;
23444;SDS011;11895;48.738;9.320;2022-11-20T08:29:06;5.30;;;2.40;;
23444;SDS011;11895;48.738;9.320;2022-11-20T08:31:34;3.50;;;2.40;;
23444;SDS011;11895;48.738;9.320;2022-11-20T08:34:01;5.03;;;2.28;;
23444;SDS011;11895;48.738;9.320;2022-11-20T08:36:34;4.20;;;3.05;;
23444;SDS011;11895;48.738;9.320;2022-11-20T08:39:03;3.47;;;2.00;;
23444;SDS011;11895;48.738;9.320;2022-11-20T08:41:30;3.63;;;2.13;;
23444;SDS011;11895;48.738;9.320;2022-11-20T08:44:01;2.75;;;2.17;;
23444;SDS011;11895;48.738;9.320;2022-11-20T08:46:32;6.07;;;3.45;;
23444;SDS011;11895;48.738;9.320;2022-11-20T08:49:07;7.88;;;4.38;;
23444;SDS011;11895;48.738;9.320;2022-11-20T08:51:37;4.82;;;2.60;;
23444;SDS011;11895;48.738;9.320;2022-11-20T08:54:06;4.68;;;2.60;;
23444;SDS011;11895;48.738;9.320;2022-11-20T08:56:35;3.50;;;2.08;;
23444;SDS011;11895;48.738;9.320;2022-11-20T08:59:02;3.58;;;2.10;;
23444;SDS011;11895;48.738;9.320;2022-11-20T09:01:50;3.80;;;2.25;;
23444;SDS011;11895;48.738;9.320;2022-11-20T09:04:18;2.72;;;2.05;;
23444;SDS011;11895;48.738;9.320;2022-11-20T09:06:46;3.83;;;2.27;;
23444;SDS011;11895;48.738;9.320;2022-11-20T09:09:17;3.72;;;2.00;;
23444;SDS011;11895;48.738;9.320;2022-11-20T09:11:46;3.47;;;2.00;;
23444;SDS011;11895;48.738;9.320;2022-11-20T09:14:13;3.03;;;2.05;;
23444;SDS011;11895;48.738;9.320;2022-11-20T09:16:41;3.80;;;2.00;;
23444;SDS011;11895;48.738;9.320;2022-11-20T09:19:11;5.88;;;2.97;;
23444;SDS011;11895;48.738;9.320;2022-11-20T09:21:59;3.15;;;2.03;;
23444;SDS011;11895;48.738;9.320;2022-11-20T09:24:26;2.83;;;1.77;;
23444;SDS011;11895;48.738;9.320;2022-11-20T09:26:54;2.95;;;1.75;;
23444;SDS011;11895;48.738;9.320;2022-11-20T09:29:22;3.85;;;2.05;;
23444;SDS011;11895;48.738;9.320;2022-11-20T09:31:50;2.72;;;1.73;;
23444;SDS011;11895;48.738;9.320;2022-11-20T09:34:17;3.33;;;1.88;;
23444;SDS011;11895;48.738;9.320;2022-11-20T09:36:45;2.10;;;1.55;;
23444;SDS011;11895;48.738;9.320;2022-11-20T09:39:13;2.20;;;1.30;;
23444;SDS011;11895;48.738;9.320;2022-11-20T09:44:47;1.33;;;1.10;;
23444;SDS011;11895;48.738;9.320;2022-11-20T09:50:32;5.43;;;1.27;;
23444;SDS011;11895;48.738;9.320;2022-11-20T09:56:36;2.05;;;0.95;;
23444;SDS011;11895;48.738;9.320;2022-11-20T09:59:14;1.88;;;1.17;;
23444;SDS011;11895;48.738;9.320;2022-11-20T10:05:06;4.10;;;0.98;;
23444;SDS011;11895;48.738;9.320;2022-11-20T10:25:20;2.83;;;1.27;;
23444;SDS011;11895;48.738;9.320;2022-11-20T10:31:38;1.90;;;1.50;;
23444;SDS011;11895;48.738;9.320;2022-11-20T10:34:15;2.20;;;1.00;;
23444;SDS011;11895;48.738;9.320;2022-11-20T10:37:02;2.13;;;0.98;;
23444;SDS011;11895;48.738;9.320;2022-11-20T10:42:22;1.90;;;1.10;;
23444;SDS011;11895;48.738;9.320;2022-11-20T10:48:38;2.38;;;1.48;;
23444;SDS011;11895;48.738;9.320;2022-11-20T11:02:32;2.33;;;1.10;;
23444;SDS011;11895;48.738;9.320;2022-11-20T11:05:10;3.17;;;2.30;;
23444;SDS011;11895;48.738;9.320;2022-11-20T11:07:56;2.63;;;1.70;;
23444;SDS011;11895;48.738;9.320;2022-11-20T11:13:21;2.90;;;1.98;;
23444;SDS011;11895;48.738;9.320;2022-11-20T11:15:51;3.13;;;1.23;;
23444;SDS011;11895;48.738;9.320;2022-11-20T11:18:30;2.65;;;1.45;;
23444;SDS011;11895;48.738;9.320;2022-11-20T11:21:00;1.77;;;1.40;;
23444;SDS011;11895;48.738;9.320;2022-11-20T11:26:28;2.13;;;1.63;;
23444;SDS011;11895;48.738;9.320;2022-11-20T11:29:00;1.63;;;1.20;;
23444;SDS011;11895;48.738;9.320;2022-11-20T11:31:31;3.22;;;1.80;;
23444;SDS011;11895;48.738;9.320;2022-11-20T11:34:34;2.28;;;1.60;;
23444;SDS011;11895;48.738;9.320;2022-11-20T11:36:56;3.30;;;1.70;;
23444;SDS011;11895;48.738;9.320;2022-11-20T11:39:28;2.50;;;1.65;;
23444;SDS011;11895;48.738;9.320;2022-11-20T11:41:59;3.85;;;1.85;;
23444;SDS011;11895;48.738;9.320;2022-11-20T11:44:32;5.53;;;3.58;;
23444;SDS011;11895;48.738;9.320;2022-11-20T12:04:24;2.75;;;1.80;;
23444;SDS011;11895;48.738;9.320;2022-11-20T12:07:27;4.13;;;2.03;;
23444;SDS011;11895;48.738;9.320;2022-11-20T12:11:00;5.65;;;1.45;;
23444;SDS011;11895;48.738;9.320;2022-11-20T12:16:03;4.53;;;1.35;;
23444;SDS011;11895;48.738;9.320;2022-11-20T12:18:31;4.00;;;1.20;;
23444;SDS011;11895;48.738;9.320;2022-11-20T12:21:18;4.30;;;1.60;;
23444;SDS011;11895;48.738;9.320;2022-11-20T12:32:40;2.78;;;1.45;;
23444;SDS011;11895;48.738;9.320;2022-11-20T12:45:14;6.88;;;1.30;;
23444;SDS011;11895;48.738;9.320;2022-11-20T13:00:40;4.25;;;1.52;;
23444;SDS011;11895;48.738;9.320;2022-11-20T13:03:29;2.40;;;1.08;;
23444;SDS011;11895;48.738;9.320;2022-11-20T13:06:30;3.38;;;1.38;;
23444;SDS011;11895;48.738;9.320;2022-11-20T13:08:58;5.43;;;1.92;;
23444;SDS011;11895;48.738;9.320;2022-11-20T13:16:43;4.97;;;1.30;;
23444;SDS011;11895;48.738;9.320;2022-11-20T13:19:32;2.50;;;1.00;;
23444;SDS011;11895;48.738;9.320;2022-11-20T13:22:01;3.97;;;1.60;;
23444;SDS011;11895;48.738;9.320;2022-11-20T13:24:32;3.60;;;1.50;;
23444;SDS011;11895;48.738;9.320;2022-11-20T13:27:00;1.92;;;1.08;;
23444;SDS011;11895;48.738;9.320;2022-11-20T13:29:35;2.60;;;1.38;;
23444;SDS011;11895;48.738;9.320;2022-11-20T13:37:32;2.30;;;0.90;;
23444;SDS011;11895;48.738;9.320;2022-11-20T13:42:37;5.40;;;1.40;;
23444;SDS011;11895;48.738;9.320;2022-11-20T13:45:35;2.72;;;0.85;;
23444;SDS011;11895;48.738;9.320;2022-11-20T13:48:18;3.22;;;1.10;;
23444;SDS011;11895;48.738;9.320;2022-11-20T13:50:55;2.63;;;1.00;;
23444;SDS011;11895;48.738;9.320;2022-11-20T14:02:16;4.10;;;1.05;;
23444;SDS011;11895;48.738;9.320;2022-11-20T14:04:48;4.63;;;2.17;;
23444;SDS011;11895;48.738;9.320;2022-11-20T14:07:20;2.72;;;1.00;;
23444;SDS011;11895;48.738;9.320;2022-11-20T14:09:55;2.92;;;1.10;;
23444;SDS011;11895;48.738;9.320;2022-11-20T14:12:29;1.98;;;1.08;;
23444;SDS011;11895;48.738;9.320;2022-11-20T14:14:59;3.53;;;1.40;;
23444;SDS011;11895;48.738;9.320;2022-11-20T14:17:31;2.55;;;1.05;;
23444;SDS011;11895;48.738;9.320;2022-11-20T14:20:03;1.80;;;1.05;;
23444;SDS011;11895;48.738;9.320;2022-11-20T14:22:34;3.88;;;1.40;;
23444;SDS011;11895;48.738;9.320;2022-11-20T14:25:03;2.55;;;1.40;;
23444;SDS011;11895;48.738;9.320;2022-11-20T14:27:41;6.50;;;1.42;;
23444;SDS011;11895;48.738;9.320;2022-11-20T14:30:37;1.45;;;1.15;;
23444;SDS011;11895;48.738;9.320;2022-11-20T14:33:14;2.03;;;1.08;;
23444;SDS011;11895;48.738;9.320;2022-11-20T14:35:47;3.20;;;1.23;;
23444;SDS011;11895;48.738;9.320;2022-11-20T14:38:25;4.38;;;1.10;;
23444;SDS011;11895;48.738;9.320;2022-11-20T14:41:05;4.55;;;1.23;;
23444;SDS011;11895;48.738;9.320;2022-11-20T14:43:35;1.80;;;1.10;;
23444;SDS011;11895;48.738;9.320;2022-11-20T14:46:08;4.40;;;1.67;;
23444;SDS011;11895;48.738;9.320;2022-11-20T14:51:32;3.95;;;1.00;;
23444;SDS011;11895;48.738;9.320;2022-11-20T14:56:54;4.15;;;1.48;;
23444;SDS011;11895;48.738;9.320;2022-11-20T14:59:27;4.07;;;1.52;;
23444;SDS011;11895;48.738;9.320;2022-11-20T15:02:02;1.83;;;1.00;;
23444;SDS011;11895;48.738;9.320;2022-11-20T15:04:48;4.55;;;1.17;;
23444;SDS011;11895;48.738;9.320;2022-11-20T15:07:24;2.42;;;1.45;;
23444;SDS011;11895;48.738;9.320;2022-11-20T15:09:59;5.18;;;1.13;;
23444;SDS011;11895;48.738;9.320;2022-11-20T15:12:34;7.82;;;2.28;;
23444;SDS011;11895;48.738;9.320;2022-11-20T15:15:05;3.17;;;1.10;;
23444;SDS011;11895;48.738;9.320;2022-11-20T15:17:38;2.50;;;1.40;;
23444;SDS011;11895;48.738;9.320;2022-11-20T15:20:14;7.90;;;1.80;;
23444;SDS011;11895;48.738;9.320;2022-11-20T15:22:43;3.55;;;1.73;;
23444;SDS011;11895;48.738;9.320;2022-11-20T15:25:12;5.72;;;3.03;;
23444;SDS011;11895;48.738;9.320;2022-11-20T15:27:42;5.05;;;2.28;;
23444;SDS011;11895;48.738;9.320;2022-11-20T15:30:12;3.08;;;1.30;;
23444;SDS011;11895;48.738;9.320;2022-11-20T15:32:44;2.80;;;1.50;;
23444;SDS011;11895;48.738;9.320;2022-11-20T15:35:13;4.90;;;2.03;;
23444;SDS011;11895;48.738;9.320;2022-11-20T15:37:42;3.47;;;1.33;;
23444;SDS011;11895;48.738;9.320;2022-11-20T15:40:10;2.53;;;1.60;;
23444;SDS011;11895;48.738;9.320;2022-11-20T15:42:38;6.53;;;2.00;;
23444;SDS011;11895;48.738;9.320;2022-11-20T15:45:26;4.35;;;1.50;;
23444;SDS011;11895;48.738;9.320;2022-11-20T15:48:00;2.50;;;1.77;;
23444;SDS011;11895;48.738;9.320;2022-11-20T15:53:30;5.20;;;1.73;;
23444;SDS011;11895;48.738;9.320;2022-11-20T15:56:00;3.65;;;1.77;;
23444;SDS011;11895;48.738;9.320;2022-11-20T15:58:30;2.88;;;1.63;;
23444;SDS011;11895;48.738;9.320;2022-11-20T16:00:58;3.90;;;1.70;;
23444;SDS011;11895;48.738;9.320;2022-11-20T16:03:26;3.10;;;1.50;;
23444;SDS011;11895;48.738;9.320;2022-11-20T16:05:53;2.67;;;1.40;;
23444;SDS011;11895;48.738;9.320;2022-11-20T16:08:21;6.57;;;3.33;;
23444;SDS011;11895;48.738;9.320;2022-11-20T16:10:49;4.47;;;2.03;;
23444;SDS011;11895;48.738;9.320;2022-11-20T16:13:17;2.53;;;1.85;;
23444;SDS011;11895;48.738;9.320;2022-11-20T16:16:04;3.75;;;2.25;;
23444;SDS011;11895;48.738;9.320;2022-11-20T16:18:44;7.40;;;4.25;;
23444;SDS011;11895;48.738;9.320;2022-11-20T16:21:12;6.30;;;2.90;;
23444;SDS011;11895;48.738;9.320;2022-11-20T16:23:40;4.43;;;2.20;;
23444;SDS011;11895;48.738;9.320;2022-11-20T16:26:09;4.57;;;2.35;;
23444;SDS011;11895;48.738;9.320;2022-11-20T16:28:43;9.32;;;4.65;;
23444;SDS011;11895;48.738;9.320;2022-11-20T16:31:18;5.70;;;2.90;;
23444;SDS011;11895;48.738;9.320;2022-11-20T16:36:23;4.72;;;2.45;;
23444;SDS011;11895;48.738;9.320;2022-11-20T16:38:54;4.65;;;2.70;;
23444;SDS011;11895;48.738;9.320;2022-11-20T16:41:25;4.72;;;2.28;;
23444;SDS011;11895;48.738;9.320;2022-11-20T16:43:57;5.18;;;2.90;;
23444;SDS011;11895;48.738;9.320;2022-11-20T16:46:30;6.68;;;4.15;;
23444;SDS011;11895;48.738;9.320;2022-11-20T16:49:00;5.63;;;3.20;;
23444;SDS011;11895;48.738;9.320;2022-11-20T16:51:31;8.63;;;3.97;;
23444;SDS011;11895;48.738;9.320;2022-11-20T16:54:02;5.40;;;3.00;;
23444;SDS011;11895;48.738;9.320;2022-11-20T16:56:31;13.50;;;4.13;;
23444;SDS011;11895;48.738;9.320;2022-11-20T16:59:02;7.40;;;3.20;;
23444;SDS011;11895;48.738;9.320;2022-11-20T17:01:30;6.80;;;3.53;;
23444;SDS011;11895;48.738;9.320;2022-11-20T17:04:00;8.27;;;3.88;;
23444;SDS011;11895;48.738;9.320;2022-11-20T17:06:34;9.00;;;3.65;;
23444;SDS011;11895;48.738;9.320;2022-11-20T17:09:05;6.63;;;3.60;;
23444;SDS011;11895;48.738;9.320;2022-11-20T17:11:37;10.63;;;4.18;;
23444;SDS011;11895;48.738;9.320;2022-11-20T17:14:05;7.65;;;4.45;;
23444;SDS011;11895;48.738;9.320;2022-11-20T17:16:33;13.73;;;7.20;;
23444;SDS011;11895;48.738;9.320;2022-11-20T17:19:02;9.93;;;5.13;;
23444;SDS011;11895;48.738;9.320;2022-11-20T17:24:04;8.85;;;4.65;;
23444;SDS011;11895;48.738;9.320;2022-11-20T17:26:35;10.23;;;6.32;;
23444;SDS011;11895;48.738;9.320;2022-11-20T17:29:26;19.90;;;11.75;;
23444;SDS011;11895;48.738;9.320;2022-11-20T17:31:53;23.77;;;11.80;;
23444;SDS011;11895;48.738;9.320;2022-11-20T17:34:21;11.32;;;5.82;;
23444;SDS011;11895;48.738;9.320;2022-11-20T17:36:50;10.77;;;6.45;;
23444;SDS011;11895;48.738;9.320;2022-11-20T17:39:24;5.53;;;3.70;;
23444;SDS011;11895;48.738;9.320;2022-11-20T17:41:53;7.90;;;3.70;;
23444;SDS011;11895;48.738;9.320;2022-11-20T17:44:40;5.10;;;3.40;;
23444;SDS011;11895;48.738;9.320;2022-11-20T17:47:08;8.75;;;4.50;;
23444;SDS011;11895;48.738;9.320;2022-11-20T17:49:35;6.13;;;3.15;;
23444;SDS011;11895;48.738;9.320;2022-11-20T17:52:03;8.98;;;3.65;;
23444;SDS011;11895;48.738;9.320;2022-11-20T17:54:31;12.32;;;5.55;;
23444;SDS011;11895;48.738;9.320;2022-11-20T17:56:59;14.32;;;6.93;;
23444;SDS011;11895;48.738;9.320;2022-11-20T17:59:45;6.82;;;4.55;;
23444;SDS011;11895;48.738;9.320;2022-11-20T18:02:12;11.48;;;6.45;;
23444;SDS011;11895;48.738;9.320;2022-11-20T18:04:40;8.88;;;5.07;;
23444;SDS011;11895;48.738;9.320;2022-11-20T18:07:08;8.68;;;4.25;;
23444;SDS011;11895;48.738;9.320;2022-11-20T18:09:35;5.07;;;2.85;;
23444;SDS011;11895;48.738;9.320;2022-11-20T18:12:03;6.57;;;2.80;;